Time;durP1;ratioP1;P1;durP2;ratioP2;P2;SDS_P1;SDS_P2;PMS_P1;PMS_P2;Temp;Humidity;BMP_temperature;BMP_pressure;BME280_temperature;BME280_humidity;BME280_pressure;Samples;Min_cycle;Max_cycle;Signal;HPM_P1;HPM_P2
2023/08/26 00:00:42;;;;;;;157.03;113.77;;;;;;;;;;5092572;28;20435;-76
2023/08/26 00:03:10;;;;;;;211.30;117.47;;;;;;;;;;5093368;28;20448;-76
2023/08/26 00:05:37;;;;;;;214.10;119.37;;;;;;;;;;5093249;28;20449;-75
2023/08/26 00:08:04;;;;;;;154.53;115.30;;;;;;;;;;5093147;28;20463;-77
2023/08/26 00:10:31;;;;;;;177.13;120.70;;;;;;;;;;5092614;28;20445;-76
2023/08/26 00:12:58;;;;;;;185.43;116.70;;;;;;;;;;5092966;28;20443;-76
2023/08/26 00:15:25;;;;;;;166.20;118.97;;;;;;;;;;5092822;28;20978;-76
2023/08/26 00:17:54;;;;;;;166.63;114.97;;;;;;;;;;5093314;28;20452;-77
2023/08/26 00:20:22;;;;;;;132.93;109.37;;;;;;;;;;5092465;28;20835;-76
2023/08/26 00:22:49;;;;;;;131.13;108.50;;;;;;;;;;5092879;28;20547;-77
2023/08/26 00:25:16;;;;;;;139.00;108.77;;;;;;;;;;5092614;28;20978;-76
2023/08/26 00:27:43;;;;;;;147.03;111.93;;;;;;;;;;5092906;28;20579;-76
2023/08/26 00:30:10;;;;;;;157.30;115.13;;;;;;;;;;5092275;28;20447;-77
2023/08/26 00:32:37;;;;;;;165.77;116.10;;;;;;;;;;5091145;28;20465;-76
2023/08/26 00:35:06;;;;;;;156.93;110.20;;;;;;;;;;5092702;28;20408;-76
2023/08/26 00:37:33;;;;;;;147.23;107.67;;;;;;;;;;5092716;28;20423;-76
2023/08/26 00:40:00;;;;;;;149.30;105.07;;;;;;;;;;5092067;28;20452;-77
2023/08/26 00:42:27;;;;;;;147.23;108.50;;;;;;;;;;5092205;28;21246;-75
2023/08/26 00:44:54;;;;;;;154.53;106.17;;;;;;;;;;5092581;28;20419;-76
2023/08/26 00:47:21;;;;;;;194.07;111.77;;;;;;;;;;5092476;28;20459;-76
2023/08/26 00:49:48;;;;;;;181.47;114.80;;;;;;;;;;5091932;28;20453;-77
2023/08/26 00:52:17;;;;;;;164.83;107.13;;;;;;;;;;5092437;28;20473;-76
2023/08/26 00:54:44;;;;;;;143.93;105.87;;;;;;;;;;5092382;28;20505;-75
2023/08/26 00:57:11;;;;;;;154.27;105.63;;;;;;;;;;5092326;28;20502;-77
2023/08/26 00:59:38;;;;;;;128.73;101.10;;;;;;;;;;5092050;28;20806;-75
2023/08/26 01:02:05;;;;;;;137.17;110.27;;;;;;;;;;5092008;28;20522;-76
2023/08/26 01:04:32;;;;;;;137.40;113.13;;;;;;;;;;5092051;28;20534;-77
2023/08/26 01:06:59;;;;;;;139.33;107.33;;;;;;;;;;5092019;28;20481;-77
2023/08/26 01:09:28;;;;;;;135.20;105.00;;;;;;;;;;5092320;28;20527;-76
2023/08/26 01:11:59;;;;;;;137.90;101.67;;;;;;;;;;5091414;28;20454;-77
2023/08/26 01:14:31;;;;;;;131.87;100.13;;;;;;;;;;5092038;28;20843;-76
2023/08/26 01:16:59;;;;;;;154.70;104.87;;;;;;;;;;5092133;28;20429;-76
2023/08/26 01:19:32;;;;;;;141.43;101.67;;;;;;;;;;5091973;28;20416;-76
2023/08/26 01:22:02;;;;;;;133.13;96.93;;;;;;;;;;5091283;28;20535;-75
2023/08/26 01:24:31;;;;;;;137.47;99.83;;;;;;;;;;5092189;28;21135;-76
2023/08/26 01:26:58;;;;;;;142.73;102.83;;;;;;;;;;5091633;28;20488;-76
2023/08/26 01:29:25;;;;;;;141.37;98.07;;;;;;;;;;5091672;28;20443;-76
2023/08/26 01:31:55;;;;;;;119.83;95.67;;;;;;;;;;5089809;28;20532;-76
2023/08/26 01:34:24;;;;;;;121.67;88.33;;;;;;;;;;5091816;28;20433;-75
2023/08/26 01:36:52;;;;;;;117.50;84.17;;;;;;;;;;5091797;28;20403;-76
2023/08/26 01:39:20;;;;;;;108.70;80.23;;;;;;;;;;5091741;28;20441;-76
2023/08/26 01:41:50;;;;;;;115.20;79.63;;;;;;;;;;5091129;28;20456;-76
2023/08/26 01:44:18;;;;;;;116.97;80.43;;;;;;;;;;5091519;28;20536;-75
2023/08/26 01:46:45;;;;;;;118.60;80.93;;;;;;;;;;5091626;28;20489;-76
2023/08/26 01:49:12;;;;;;;121.00;84.47;;;;;;;;;;5091406;28;20478;-77
2023/08/26 01:51:40;;;;;;;106.40;79.97;;;;;;;;;;5091096;28;20449;-76
2023/08/26 01:54:07;;;;;;;114.10;80.47;;;;;;;;;;5091659;28;20428;-76
2023/08/26 01:56:34;;;;;;;108.17;80.17;;;;;;;;;;5091244;28;20941;-77
2023/08/26 01:59:02;;;;;;;114.17;81.20;;;;;;;;;;5092916;28;20440;-76
2023/08/26 02:01:30;;;;;;;112.73;82.40;;;;;;;;;;5094660;28;20456;-76
2023/08/26 02:03:57;;;;;;;102.33;80.07;;;;;;;;;;5095465;28;20510;-76
2023/08/26 02:06:24;;;;;;;113.60;81.23;;;;;;;;;;5095533;28;20447;-75
2023/08/26 02:08:51;;;;;;;112.90;82.80;;;;;;;;;;5095421;28;20484;-76
2023/08/26 02:11:18;;;;;;;127.30;85.23;;;;;;;;;;5094946;28;20440;-76
2023/08/26 02:13:45;;;;;;;115.67;79.40;;;;;;;;;;5095388;28;20468;-76
2023/08/26 02:16:14;;;;;;;118.60;81.47;;;;;;;;;;5095368;28;20448;-77
2023/08/26 02:18:41;;;;;;;115.93;83.80;;;;;;;;;;5095271;28;20416;-76
2023/08/26 02:21:08;;;;;;;122.77;86.63;;;;;;;;;;5094653;28;20440;-76
2023/08/26 02:23:35;;;;;;;104.67;78.47;;;;;;;;;;5095003;28;20859;-75
2023/08/26 02:26:02;;;;;;;115.70;84.30;;;;;;;;;;5094997;28;20415;-75
2023/08/26 02:28:29;;;;;;;126.80;82.13;;;;;;;;;;5095372;28;20814;-76
2023/08/26 02:30:56;;;;;;;121.20;79.70;;;;;;;;;;5094333;28;20481;-76
2023/08/26 02:33:26;;;;;;;110.90;80.70;;;;;;;;;;5093443;28;20475;-76
2023/08/26 02:35:54;;;;;;;101.40;77.83;;;;;;;;;;5095014;28;20506;-76
2023/08/26 02:38:21;;;;;;;101.00;72.07;;;;;;;;;;5094878;28;20447;-76
2023/08/26 02:40:54;;;;;;;103.23;77.17;;;;;;;;;;5094104;28;20913;-77
2023/08/26 02:43:21;;;;;;;98.83;74.07;;;;;;;;;;5094508;28;20464;-76
2023/08/26 02:45:52;;;;;;;103.27;75.70;;;;;;;;;;5094801;28;20437;-76
2023/08/26 02:48:19;;;;;;;100.00;71.73;;;;;;;;;;5094741;28;20556;-75
2023/08/26 02:50:48;;;;;;;90.80;73.27;;;;;;;;;;5093888;28;20465;-76
2023/08/26 02:53:15;;;;;;;92.97;69.63;;;;;;;;;;5094261;28;20982;-76
2023/08/26 02:55:42;;;;;;;92.67;72.13;;;;;;;;;;5094372;28;20487;-75
2023/08/26 02:58:09;;;;;;;99.47;75.77;;;;;;;;;;5094208;28;20940;-76
2023/08/26 03:00:36;;;;;;;104.30;74.63;;;;;;;;;;5093507;28;20432;-76
2023/08/26 03:03:03;;;;;;;92.83;74.73;;;;;;;;;;5094486;28;20442;-76
2023/08/26 03:05:30;;;;;;;92.70;73.43;;;;;;;;;;5094444;28;20494;-75
2023/08/26 03:07:58;;;;;;;99.30;68.40;;;;;;;;;;5094341;28;20481;-75
2023/08/26 03:10:25;;;;;;;89.80;73.37;;;;;;;;;;5092629;28;20420;-76
2023/08/26 03:12:52;;;;;;;92.23;71.43;;;;;;;;;;5094407;28;20468;-76
2023/08/26 03:15:19;;;;;;;93.57;71.00;;;;;;;;;;5094393;28;20452;-76
2023/08/26 03:17:47;;;;;;;97.93;72.60;;;;;;;;;;5094254;28;20441;-76
2023/08/26 03:20:14;;;;;;;100.17;72.43;;;;;;;;;;5093638;28;20441;-76
2023/08/26 03:22:41;;;;;;;86.20;67.63;;;;;;;;;;5094099;28;20473;-76
2023/08/26 03:25:10;;;;;;;80.20;66.67;;;;;;;;;;5094054;28;20419;-76
2023/08/26 03:27:37;;;;;;;91.93;68.73;;;;;;;;;;5093549;28;20483;-76
2023/08/26 03:30:05;;;;;;;93.27;67.90;;;;;;;;;;5093284;28;20452;-76
2023/08/26 03:32:32;;;;;;;87.60;68.43;;;;;;;;;;5093037;28;20516;-76
2023/08/26 03:34:59;;;;;;;78.60;64.77;;;;;;;;;;5093759;28;20423;-76
2023/08/26 03:37:26;;;;;;;90.27;65.40;;;;;;;;;;5093824;28;20473;-76
2023/08/26 03:39:53;;;;;;;90.80;68.70;;;;;;;;;;5092879;28;20427;-75
2023/08/26 03:42:21;;;;;;;78.30;62.17;;;;;;;;;;5093409;28;20977;-76
2023/08/26 03:44:48;;;;;;;81.80;65.00;;;;;;;;;;5093714;28;20437;-75
2023/08/26 03:47:16;;;;;;;75.00;63.47;;;;;;;;;;5093376;28;20494;-75
2023/08/26 03:49:43;;;;;;;78.47;62.33;;;;;;;;;;5093222;28;20552;-76
2023/08/26 03:52:10;;;;;;;84.67;64.70;;;;;;;;;;5093286;28;20506;-76
2023/08/26 03:54:37;;;;;;;75.87;62.50;;;;;;;;;;5093073;28;20960;-75
2023/08/26 03:57:04;;;;;;;73.63;62.07;;;;;;;;;;5093363;28;20540;-76
2023/08/26 03:59:32;;;;;;;76.10;60.30;;;;;;;;;;5093327;28;20445;-76
2023/08/26 04:01:59;;;;;;;74.90;64.30;;;;;;;;;;5092555;28;20448;-77
2023/08/26 04:04:26;;;;;;;77.13;61.50;;;;;;;;;;5093505;28;20407;-76
2023/08/26 04:06:55;;;;;;;70.87;60.87;;;;;;;;;;5093212;28;20494;-74
2023/08/26 04:09:23;;;;;;;75.83;63.73;;;;;;;;;;5092802;28;20462;-75
2023/08/26 04:11:50;;;;;;;70.27;58.83;;;;;;;;;;5092498;28;20475;-76
2023/08/26 04:14:17;;;;;;;65.87;58.67;;;;;;;;;;5092893;28;20772;-76
2023/08/26 04:16:45;;;;;;;76.83;61.03;;;;;;;;;;5092899;28;20423;-76
2023/08/26 04:19:14;;;;;;;72.20;60.40;;;;;;;;;;5092929;28;20416;-75
2023/08/26 04:21:41;;;;;;;73.40;60.93;;;;;;;;;;5091657;28;20757;-76
2023/08/26 04:24:08;;;;;;;73.33;59.37;;;;;;;;;;5092904;28;20440;-76
2023/08/26 04:26:35;;;;;;;73.27;61.83;;;;;;;;;;5092800;28;20420;-75
2023/08/26 04:29:02;;;;;;;69.33;57.87;;;;;;;;;;5092417;28;20987;-76
2023/08/26 04:31:29;;;;;;;69.67;58.27;;;;;;;;;;5091941;28;20441;-75
2023/08/26 04:33:57;;;;;;;70.13;59.20;;;;;;;;;;5091466;28;20964;-76
2023/08/26 04:36:24;;;;;;;77.40;60.87;;;;;;;;;;5092302;28;20462;-75
2023/08/26 04:38:51;;;;;;;72.73;58.37;;;;;;;;;;5092716;28;20459;-75
2023/08/26 04:41:19;;;;;;;72.87;58.73;;;;;;;;;;5091863;28;20476;-76
2023/08/26 04:43:47;;;;;;;80.00;61.47;;;;;;;;;;5092255;28;20451;-75
2023/08/26 04:46:14;;;;;;;74.77;58.20;;;;;;;;;;5092275;28;20430;-76
2023/08/26 04:48:41;;;;;;;76.40;60.37;;;;;;;;;;5092050;28;20533;-75
2023/08/26 04:51:09;;;;;;;73.93;58.07;;;;;;;;;;5091607;28;20847;-75
2023/08/26 04:53:36;;;;;;;72.20;60.93;;;;;;;;;;5092242;28;20557;-75
2023/08/26 04:56:03;;;;;;;70.30;58.83;;;;;;;;;;5092174;28;20447;-76
2023/08/26 04:58:31;;;;;;;74.47;57.90;;;;;;;;;;5092054;28;20480;-75
2023/08/26 05:00:59;;;;;;;68.53;55.30;;;;;;;;;;5091553;28;20431;-76
2023/08/26 05:03:25;;;;;;;45.00;40.27;;;;;;;;;;5091749;28;20455;-75
2023/08/26 05:05:52;;;;;;;24.07;22.30;;;;;;;;;;5092066;28;20448;-76
2023/08/26 05:08:20;;;;;;;23.30;21.77;;;;;;;;;;5091966;28;20484;-76
2023/08/26 05:10:47;;;;;;;21.60;20.20;;;;;;;;;;5091190;28;20982;-76
2023/08/26 05:13:14;;;;;;;21.50;20.20;;;;;;;;;;5091974;28;20473;-76
2023/08/26 05:15:41;;;;;;;24.47;22.50;;;;;;;;;;5092187;28;20400;-75
2023/08/26 05:18:08;;;;;;;22.73;21.13;;;;;;;;;;5091692;28;20437;-76
2023/08/26 05:20:35;;;;;;;22.33;20.70;;;;;;;;;;5091440;28;20445;-75
2023/08/26 05:23:02;;;;;;;23.20;21.60;;;;;;;;;;5091721;28;20468;-75
2023/08/26 05:25:31;;;;;;;23.13;21.47;;;;;;;;;;5091781;28;20499;-75
2023/08/26 05:27:58;;;;;;;23.60;21.83;;;;;;;;;;5091863;28;20477;-76
2023/08/26 05:30:25;;;;;;;20.90;19.70;;;;;;;;;;5091292;28;20472;-76
2023/08/26 05:32:52;;;;;;;21.40;20.10;;;;;;;;;;5090734;28;20479;-77
2023/08/26 05:35:19;;;;;;;22.53;21.03;;;;;;;;;;5091403;28;20472;-76
2023/08/26 05:37:46;;;;;;;21.37;20.00;;;;;;;;;;5091596;28;20993;-76
2023/08/26 05:40:13;;;;;;;21.73;20.40;;;;;;;;;;5091177;28;20448;-75
2023/08/26 05:42:42;;;;;;;22.10;20.70;;;;;;;;;;5091677;28;20435;-75
2023/08/26 05:45:09;;;;;;;22.50;20.80;;;;;;;;;;5091744;28;20452;-76
2023/08/26 05:47:36;;;;;;;22.03;20.40;;;;;;;;;;5091730;28;20506;-76
2023/08/26 05:50:04;;;;;;;22.93;21.03;;;;;;;;;;5091157;28;20480;-76
2023/08/26 05:52:31;;;;;;;22.10;20.70;;;;;;;;;;5091785;28;20505;-76
2023/08/26 05:54:58;;;;;;;20.13;19.03;;;;;;;;;;5091718;28;20415;-75
2023/08/26 05:57:25;;;;;;;21.80;20.40;;;;;;;;;;5091787;28;20450;-75
2023/08/26 05:59:53;;;;;;;19.80;18.67;;;;;;;;;;5090972;28;20428;-75
2023/08/26 06:02:20;;;;;;;20.83;19.63;;;;;;;;;;5091475;28;20464;-75
2023/08/26 06:04:48;;;;;;;22.87;20.50;;;;;;;;;;5092031;28;20459;-75
2023/08/26 06:07:15;;;;;;;21.70;20.10;;;;;;;;;;5091635;28;20448;-75
2023/08/26 06:09:42;;;;;;;21.33;19.77;;;;;;;;;;5091190;28;20488;-76
2023/08/26 06:12:10;;;;;;;20.30;19.10;;;;;;;;;;5091209;28;20459;-76
2023/08/26 06:14:37;;;;;;;20.67;19.30;;;;;;;;;;5091147;28;21060;-75
2023/08/26 06:17:05;;;;;;;20.70;19.00;;;;;;;;;;5091514;28;20436;-75
2023/08/26 06:19:32;;;;;;;20.70;19.40;;;;;;;;;;5091546;28;20841;-75
2023/08/26 06:21:59;;;;;;;21.23;19.73;;;;;;;;;;5090759;28;20437;-76
2023/08/26 06:24:27;;;;;;;20.63;19.30;;;;;;;;;;5091211;28;20441;-75
2023/08/26 06:26:54;;;;;;;20.10;18.60;;;;;;;;;;5091126;28;20448;-75
2023/08/26 06:29:23;;;;;;;20.60;19.00;;;;;;;;;;5091249;28;21183;-75
2023/08/26 06:31:50;;;;;;;21.10;19.50;;;;;;;;;;5089319;28;20448;-75
2023/08/26 06:34:18;;;;;;;21.03;19.67;;;;;;;;;;5091487;28;20429;-76
2023/08/26 06:36:46;;;;;;;21.10;19.50;;;;;;;;;;5091171;28;20849;-75
2023/08/26 06:39:13;;;;;;;20.60;19.30;;;;;;;;;;5091126;28;20541;-76
2023/08/26 06:41:40;;;;;;;20.40;19.20;;;;;;;;;;5090920;28;20492;-75
2023/08/26 06:44:07;;;;;;;21.47;20.00;;;;;;;;;;5091442;28;20476;-75
2023/08/26 06:46:34;;;;;;;20.37;19.27;;;;;;;;;;5094864;28;20890;-76
2023/08/26 06:49:02;;;;;;;21.77;20.27;;;;;;;;;;5095109;28;20479;-75
2023/08/26 06:51:30;;;;;;;21.43;20.00;;;;;;;;;;5094418;28;20539;-76
2023/08/26 06:53:57;;;;;;;21.40;20.00;;;;;;;;;;5094523;28;20464;-75
2023/08/26 06:56:24;;;;;;;21.43;20.13;;;;;;;;;;5094636;28;20444;-75
2023/08/26 06:58:52;;;;;;;21.60;20.40;;;;;;;;;;5094753;28;20433;-75
2023/08/26 07:01:19;;;;;;;21.30;19.80;;;;;;;;;;5093760;28;20452;-76
2023/08/26 07:03:46;;;;;;;21.60;20.10;;;;;;;;;;5094404;28;20506;-75
2023/08/26 07:06:13;;;;;;;21.60;20.00;;;;;;;;;;5094413;28;20534;-76
2023/08/26 07:08:42;;;;;;;21.00;19.80;;;;;;;;;;5094044;28;21007;-75
2023/08/26 07:11:09;;;;;;;21.37;20.07;;;;;;;;;;5093779;28;20856;-75
2023/08/26 07:13:36;;;;;;;21.23;19.83;;;;;;;;;;5094111;28;20498;-76
2023/08/26 07:16:03;;;;;;;21.97;20.40;;;;;;;;;;5094255;28;20494;-74
2023/08/26 07:18:30;;;;;;;22.23;20.50;;;;;;;;;;5093974;28;20933;-75
2023/08/26 07:20:57;;;;;;;21.50;20.20;;;;;;;;;;5093666;28;20445;-76
2023/08/26 07:23:24;;;;;;;21.13;19.63;;;;;;;;;;5093898;28;20473;-76
2023/08/26 07:25:53;;;;;;;21.10;19.80;;;;;;;;;;5093899;28;20448;-76
2023/08/26 07:28:20;;;;;;;20.43;19.20;;;;;;;;;;5093724;28;20445;-75
2023/08/26 07:30:47;;;;;;;22.50;20.93;;;;;;;;;;5093331;28;20452;-76
2023/08/26 07:33:14;;;;;;;21.30;19.67;;;;;;;;;;5092416;28;20522;-75
2023/08/26 07:35:41;;;;;;;21.53;20.00;;;;;;;;;;5093506;28;20442;-75
2023/08/26 07:38:08;;;;;;;21.00;19.70;;;;;;;;;;5094085;28;20423;-75
2023/08/26 07:40:35;;;;;;;23.73;22.13;;;;;;;;;;5093199;28;20490;-76
2023/08/26 07:43:04;;;;;;;21.20;19.80;;;;;;;;;;5093682;28;20556;-76
2023/08/26 07:45:31;;;;;;;21.93;20.33;;;;;;;;;;5093533;28;20448;-75
2023/08/26 07:47:58;;;;;;;20.87;19.60;;;;;;;;;;5093934;28;20501;-76
2023/08/26 07:50:25;;;;;;;21.30;20.20;;;;;;;;;;5093343;28;20508;-75
2023/08/26 07:52:53;;;;;;;22.10;20.43;;;;;;;;;;5093609;28;20541;-75
2023/08/26 07:55:20;;;;;;;21.47;19.70;;;;;;;;;;5093792;28;20449;-76
2023/08/26 07:57:47;;;;;;;21.37;19.97;;;;;;;;;;5092977;28;20933;-76
2023/08/26 08:00:16;;;;;;;21.43;20.07;;;;;;;;;;5092701;28;20449;-75
2023/08/26 08:02:43;;;;;;;21.83;20.23;;;;;;;;;;5093607;28;20479;-75
2023/08/26 08:05:10;;;;;;;21.63;20.00;;;;;;;;;;5093595;28;20452;-75
2023/08/26 08:07:37;;;;;;;20.93;19.70;;;;;;;;;;5093217;28;20479;-75
2023/08/26 08:10:04;;;;;;;22.60;20.93;;;;;;;;;;5092820;28;20553;-76
2023/08/26 08:12:32;;;;;;;22.00;20.50;;;;;;;;;;5093000;28;20976;-75
2023/08/26 08:14:59;;;;;;;21.73;20.40;;;;;;;;;;5093195;28;20445;-76
2023/08/26 08:17:28;;;;;;;21.20;19.90;;;;;;;;;;5093156;28;20453;-75
2023/08/26 08:19:55;;;;;;;21.73;20.40;;;;;;;;;;5092768;28;20407;-75
2023/08/26 08:22:34;;;;;;;21.03;19.93;;;;;;;;;;5092877;28;20592;-76
2023/08/26 08:25:01;;;;;;;21.60;20.10;;;;;;;;;;5092932;28;20478;-76
2023/08/26 08:27:28;;;;;;;20.63;19.43;;;;;;;;;;5093213;28;20507;-76
2023/08/26 08:29:56;;;;;;;19.83;18.73;;;;;;;;;;5092433;28;20477;-75
2023/08/26 08:32:24;;;;;;;20.60;19.50;;;;;;;;;;5091551;28;20464;-76
2023/08/26 08:34:52;;;;;;;20.73;19.30;;;;;;;;;;5092743;28;20440;-76
2023/08/26 08:37:19;;;;;;;22.83;20.77;;;;;;;;;;5092744;28;20456;-76
2023/08/26 08:39:46;;;;;;;22.23;21.00;;;;;;;;;;5091954;28;20480;-76
2023/08/26 08:42:15;;;;;;;20.97;19.77;;;;;;;;;;5093090;28;20469;-76
2023/08/26 08:44:43;;;;;;;20.80;19.50;;;;;;;;;;5092784;28;20452;-76
2023/08/26 08:47:10;;;;;;;21.33;19.80;;;;;;;;;;5092934;28;20447;-75
2023/08/26 08:49:38;;;;;;;21.93;20.53;;;;;;;;;;5092535;28;20484;-75
2023/08/26 08:52:07;;;;;;;21.07;19.87;;;;;;;;;;5092284;28;20851;-74
2023/08/26 08:54:35;;;;;;;20.30;19.17;;;;;;;;;;5092602;28;20455;-75
2023/08/26 08:57:03;;;;;;;21.30;20.10;;;;;;;;;;5092735;28;20445;-75
2023/08/26 08:59:31;;;;;;;21.00;19.67;;;;;;;;;;5092882;28;20468;-76
2023/08/26 09:01:59;;;;;;;21.40;19.90;;;;;;;;;;5092238;28;20791;-75
2023/08/26 09:04:26;;;;;;;21.17;19.90;;;;;;;;;;5092593;28;20448;-77
2023/08/26 09:06:54;;;;;;;21.83;20.33;;;;;;;;;;5092611;28;20850;-76
2023/08/26 09:09:22;;;;;;;22.13;20.93;;;;;;;;;;5091041;28;20990;-75
2023/08/26 09:11:50;;;;;;;22.80;21.33;;;;;;;;;;5091809;28;20937;-76
2023/08/26 09:14:17;;;;;;;22.23;20.83;;;;;;;;;;5092149;28;21237;-76
2023/08/26 09:16:45;;;;;;;21.40;20.20;;;;;;;;;;5092555;28;20493;-76
2023/08/26 09:19:12;;;;;;;20.83;19.50;;;;;;;;;;5091978;28;20441;-76
2023/08/26 09:21:41;;;;;;;20.73;19.33;;;;;;;;;;5091762;28;20468;-76
2023/08/26 09:24:12;;;;;;;21.83;20.13;;;;;;;;;;5092140;28;20503;-75
2023/08/26 09:26:41;;;;;;;21.20;20.00;;;;;;;;;;5091961;28;20448;-75
2023/08/26 09:29:13;;;;;;;21.37;19.90;;;;;;;;;;5091901;28;20498;-76
2023/08/26 09:31:46;;;;;;;21.93;20.73;;;;;;;;;;5090816;28;20533;-75
2023/08/26 09:34:13;;;;;;;21.47;20.07;;;;;;;;;;5091682;28;20445;-76
2023/08/26 09:36:41;;;;;;;22.27;20.90;;;;;;;;;;5092027;28;20643;-76
2023/08/26 09:39:13;;;;;;;21.97;20.70;;;;;;;;;;5092053;28;20443;-76
2023/08/26 09:41:42;;;;;;;21.83;20.50;;;;;;;;;;5091489;28;20417;-75
2023/08/26 09:44:10;;;;;;;21.60;20.40;;;;;;;;;;5091975;28;20453;-75
2023/08/26 09:46:39;;;;;;;23.37;21.50;;;;;;;;;;5091478;28;20498;-76
2023/08/26 09:49:06;;;;;;;22.50;21.20;;;;;;;;;;5091664;28;20532;-75
2023/08/26 09:51:33;;;;;;;22.30;21.00;;;;;;;;;;5090775;28;20847;-76
2023/08/26 09:54:00;;;;;;;21.73;20.40;;;;;;;;;;5091708;28;20468;-76
2023/08/26 09:56:28;;;;;;;21.63;20.30;;;;;;;;;;5091634;28;20441;-75
2023/08/26 09:58:57;;;;;;;21.40;20.20;;;;;;;;;;5091614;28;20445;-75
2023/08/26 10:01:25;;;;;;;21.30;20.00;;;;;;;;;;5090736;28;20453;-75
2023/08/26 10:03:54;;;;;;;21.83;20.53;;;;;;;;;;5091660;28;20475;-75
2023/08/26 10:06:23;;;;;;;23.60;22.10;;;;;;;;;;5091651;28;20411;-75
2023/08/26 10:08:53;;;;;;;22.17;20.53;;;;;;;;;;5091388;28;20532;-77
2023/08/26 10:11:21;;;;;;;21.53;20.13;;;;;;;;;;5091114;28;20443;-76
2023/08/26 10:13:51;;;;;;;21.40;20.00;;;;;;;;;;5091540;28;20464;-76
2023/08/26 10:16:23;;;;;;;21.40;20.00;;;;;;;;;;5091622;28;20453;-75
2023/08/26 10:18:51;;;;;;;23.43;21.93;;;;;;;;;;5091562;28;20449;-76
2023/08/26 10:21:19;;;;;;;21.27;20.07;;;;;;;;;;5094312;28;20441;-75
2023/08/26 10:23:46;;;;;;;21.33;20.03;;;;;;;;;;5095285;28;20438;-75
2023/08/26 10:26:13;;;;;;;20.30;19.10;;;;;;;;;;5095240;28;21065;-76
2023/08/26 10:28:40;;;;;;;21.10;19.70;;;;;;;;;;5095617;28;20443;-76
2023/08/26 10:31:08;;;;;;;23.20;21.50;;;;;;;;;;5094483;28;20991;-75
2023/08/26 10:33:58;;;;;;;21.70;20.50;;;;;;;;;;5094443;28;20476;-77
2023/08/26 10:36:25;;;;;;;21.70;20.40;;;;;;;;;;5094797;28;20449;-76
2023/08/26 10:38:55;;;;;;;21.83;20.53;;;;;;;;;;5094774;28;20449;-75
2023/08/26 10:41:22;;;;;;;21.30;20.07;;;;;;;;;;5094048;28;20476;-76
2023/08/26 10:43:52;;;;;;;22.37;20.67;;;;;;;;;;5095109;28;20460;-75
2023/08/26 10:46:19;;;;;;;21.50;20.00;;;;;;;;;;5095125;28;20528;-75
2023/08/26 10:48:56;;;;;;;21.43;20.10;;;;;;;;;;5094836;28;20502;-76
2023/08/26 10:51:23;;;;;;;21.80;20.60;;;;;;;;;;5094180;28;20567;-77
2023/08/26 10:53:50;;;;;;;21.97;20.77;;;;;;;;;;5094704;28;21108;-76
2023/08/26 10:56:18;;;;;;;21.73;20.53;;;;;;;;;;5094981;28;20448;-75
2023/08/26 10:58:46;;;;;;;22.40;21.00;;;;;;;;;;5094912;28;20520;-76
2023/08/26 11:01:13;;;;;;;23.10;21.60;;;;;;;;;;5093674;28;20451;-76
2023/08/26 11:03:40;;;;;;;22.40;21.20;;;;;;;;;;5094473;28;20469;-75
2023/08/26 11:06:09;;;;;;;22.67;21.07;;;;;;;;;;5094062;28;20452;-76
2023/08/26 11:08:38;;;;;;;23.03;21.63;;;;;;;;;;5094345;28;20452;-76
2023/08/26 11:11:05;;;;;;;24.10;22.50;;;;;;;;;;5093712;28;20514;-76
2023/08/26 11:13:32;;;;;;;24.13;22.50;;;;;;;;;;5094283;28;20501;-75
2023/08/26 11:15:59;;;;;;;23.60;22.20;;;;;;;;;;5094079;28;20983;-75
2023/08/26 11:18:26;;;;;;;23.30;21.80;;;;;;;;;;5094210;28;20532;-76
2023/08/26 11:20:53;;;;;;;22.53;21.03;;;;;;;;;;5093629;28;20448;-76
2023/08/26 11:23:25;;;;;;;21.17;20.03;;;;;;;;;;5093882;28;20472;-76
2023/08/26 11:25:52;;;;;;;22.43;21.10;;;;;;;;;;5094107;28;20842;-75
2023/08/26 11:28:19;;;;;;;21.80;20.57;;;;;;;;;;5094146;28;20498;-76
2023/08/26 11:30:46;;;;;;;22.17;20.97;;;;;;;;;;5092945;28;20488;-76
2023/08/26 11:33:15;;;;;;;22.13;20.83;;;;;;;;;;5092346;28;20503;-75
2023/08/26 11:35:42;;;;;;;22.10;20.80;;;;;;;;;;5093801;28;20449;-76
2023/08/26 11:38:09;;;;;;;22.27;20.87;;;;;;;;;;5093782;28;20449;-76
2023/08/26 11:40:37;;;;;;;21.40;20.00;;;;;;;;;;5093183;28;20502;-75
2023/08/26 11:43:08;;;;;;;21.33;20.13;;;;;;;;;;5093475;28;20540;-76
2023/08/26 11:45:35;;;;;;;22.10;20.80;;;;;;;;;;5094134;28;20856;-76
2023/08/26 11:48:02;;;;;;;22.07;20.77;;;;;;;;;;5094109;28;20452;-76
2023/08/26 11:50:29;;;;;;;21.90;20.60;;;;;;;;;;5093232;28;20491;-76
2023/08/26 11:52:57;;;;;;;21.80;20.60;;;;;;;;;;5093467;28;20468;-75
2023/08/26 11:55:28;;;;;;;22.27;20.87;;;;;;;;;;5093561;28;20412;-76
2023/08/26 11:57:56;;;;;;;22.33;21.03;;;;;;;;;;5093274;28;20481;-75
2023/08/26 12:00:24;;;;;;;22.20;20.63;;;;;;;;;;5092542;28;20423;-76
2023/08/26 12:02:52;;;;;;;21.30;19.90;;;;;;;;;;5093348;28;20500;-75
2023/08/26 12:05:19;;;;;;;21.93;20.33;;;;;;;;;;5093208;28;20472;-76
2023/08/26 12:07:46;;;;;;;21.63;20.43;;;;;;;;;;5092884;28;20990;-75
2023/08/26 12:10:14;;;;;;;22.90;21.30;;;;;;;;;;5092299;28;20458;-76
2023/08/26 12:12:42;;;;;;;21.07;19.87;;;;;;;;;;5092830;28;20980;-76
2023/08/26 12:15:11;;;;;;;21.17;19.87;;;;;;;;;;5093110;28;20860;-75
2023/08/26 12:17:45;;;;;;;19.93;18.80;;;;;;;;;;5092838;28;20423;-76
2023/08/26 12:20:22;;;;;;;22.13;20.93;;;;;;;;;;5092339;28;20457;-75
2023/08/26 12:22:49;;;;;;;21.40;19.97;;;;;;;;;;5092879;28;20472;-76
2023/08/26 12:25:17;;;;;;;20.53;19.23;;;;;;;;;;5092947;28;20789;-76
2023/08/26 12:27:44;;;;;;;21.10;19.80;;;;;;;;;;5092703;28;20449;-76
2023/08/26 12:30:13;;;;;;;21.13;19.73;;;;;;;;;;5091866;28;20992;-75
2023/08/26 12:32:40;;;;;;;20.87;19.60;;;;;;;;;;5091315;28;20463;-76
2023/08/26 12:35:08;;;;;;;21.40;20.10;;;;;;;;;;5092441;28;20461;-75
2023/08/26 12:37:35;;;;;;;22.23;20.93;;;;;;;;;;5092334;28;20506;-75
2023/08/26 12:40:04;;;;;;;21.73;20.43;;;;;;;;;;5092035;28;20440;-74
2023/08/26 12:42:31;;;;;;;21.00;19.80;;;;;;;;;;5092259;28;20871;-76
2023/08/26 12:44:58;;;;;;;21.27;20.03;;;;;;;;;;5092338;28;20839;-75
2023/08/26 12:47:26;;;;;;;21.63;20.30;;;;;;;;;;5092386;28;20451;-75
2023/08/26 12:49:54;;;;;;;21.60;20.33;;;;;;;;;;5091231;28;20441;-75
2023/08/26 12:52:21;;;;;;;20.83;19.63;;;;;;;;;;5092463;28;20548;-77
2023/08/26 12:54:49;;;;;;;21.00;19.80;;;;;;;;;;5092449;28;20456;-76
2023/08/26 12:57:16;;;;;;;21.43;20.23;;;;;;;;;;5092439;28;20524;-75
2023/08/26 12:59:43;;;;;;;21.73;20.33;;;;;;;;;;5091752;28;20451;-77
2023/08/26 13:02:10;;;;;;;22.47;21.17;;;;;;;;;;5092245;28;20435;-76
2023/08/26 13:04:39;;;;;;;22.60;21.17;;;;;;;;;;5092339;28;20455;-75
2023/08/26 13:07:06;;;;;;;23.20;21.80;;;;;;;;;;5092132;28;20472;-75
2023/08/26 13:09:33;;;;;;;22.03;20.83;;;;;;;;;;5092006;28;20804;-75
2023/08/26 13:12:00;;;;;;;22.63;21.33;;;;;;;;;;5091312;28;20491;-74
2023/08/26 13:14:27;;;;;;;21.40;20.20;;;;;;;;;;5092045;28;20498;-76
2023/08/26 13:16:54;;;;;;;21.53;20.20;;;;;;;;;;5091808;28;20423;-75
2023/08/26 13:19:21;;;;;;;22.10;20.80;;;;;;;;;;5091703;28;21027;-75
2023/08/26 13:21:50;;;;;;;22.17;20.90;;;;;;;;;;5091409;28;20529;-75
2023/08/26 13:24:17;;;;;;;22.80;21.50;;;;;;;;;;5091956;28;20448;-76
2023/08/26 13:26:45;;;;;;;22.27;20.87;;;;;;;;;;5091936;28;20811;-75
2023/08/26 13:29:12;;;;;;;22.43;21.03;;;;;;;;;;5092173;28;20514;-76
2023/08/26 13:31:39;;;;;;;22.00;20.60;;;;;;;;;;5089829;28;20503;-75
2023/08/26 13:34:06;;;;;;;21.77;20.30;;;;;;;;;;5092094;28;20439;-75
2023/08/26 13:36:35;;;;;;;23.47;21.97;;;;;;;;;;5092126;28;20470;-76
2023/08/26 13:39:04;;;;;;;22.53;21.13;;;;;;;;;;5091992;28;20448;-75
2023/08/26 13:41:31;;;;;;;26.37;21.70;;;;;;;;;;5091496;28;20479;-76
2023/08/26 13:43:58;;;;;;;22.30;20.90;;;;;;;;;;5091475;28;20983;-75
2023/08/26 13:46:25;;;;;;;22.23;20.83;;;;;;;;;;5091554;28;20976;-76
2023/08/26 13:48:52;;;;;;;21.20;19.80;;;;;;;;;;5091824;28;20426;-75
2023/08/26 13:51:20;;;;;;;21.33;20.13;;;;;;;;;;5090853;28;20504;-75
2023/08/26 13:53:47;;;;;;;21.90;20.50;;;;;;;;;;5091673;28;20465;-76
2023/08/26 13:56:16;;;;;;;21.37;20.17;;;;;;;;;;5094854;28;20482;-76
2023/08/26 13:58:43;;;;;;;22.07;20.67;;;;;;;;;;5095704;28;21169;-75
2023/08/26 14:01:10;;;;;;;21.57;20.30;;;;;;;;;;5095032;28;20448;-76
2023/08/26 14:03:38;;;;;;;21.80;20.50;;;;;;;;;;5095603;28;20661;-76
2023/08/26 14:06:06;;;;;;;20.97;19.77;;;;;;;;;;5095693;28;20493;-76
2023/08/26 14:08:33;;;;;;;21.60;20.30;;;;;;;;;;5095372;28;20917;-75
2023/08/26 14:11:00;;;;;;;22.23;20.77;;;;;;;;;;5094766;28;21063;-75
2023/08/26 14:13:29;;;;;;;21.17;19.87;;;;;;;;;;5095134;28;20469;-76
2023/08/26 14:15:56;;;;;;;21.13;19.83;;;;;;;;;;5095623;28;20437;-76